Time;durP1;ratioP1;P1;durP2;ratioP2;P2;SDS_P1;SDS_P2;PMS_P1;PMS_P2;Temp;Humidity;BMP_temperature;BMP_pressure;BME280_temperature;BME280_humidity;BME280_pressure;Samples;Min_cycle;Max_cycle;Signal;HPM_P1;HPM_P2
2022/04/02 00:00:00;;;;;;;;;6.00;5.00;;;;;21.50;37.13;99875.37;110164;1264;18652;-52
2022/04/02 00:02:27;;;;;;;;;6.67;5.33;;;;;21.48;37.30;99871.58;110235;1264;19573;-52
2022/04/02 00:04:54;;;;;;;;;6.00;6.00;;;;;21.50;37.21;99875.58;110174;1265;19637;-55
2022/04/02 00:07:21;;;;;;;;;5.00;5.00;;;;;21.47;37.15;99870.83;110225;1264;22721;-52
2022/04/02 00:09:48;;;;;;;;;5.67;5.67;;;;;21.47;37.18;99867.59;110068;1264;18773;-55
2022/04/02 00:12:16;;;;;;;;;8.33;7.33;;;;;21.48;37.19;99871.45;110188;1264;20616;-55
2022/04/02 00:14:45;;;;;;;;;8.00;7.33;;;;;21.48;37.21;99865.43;110237;1264;18347;-48
2022/04/02 00:17:12;;;;;;;;;4.67;4.00;;;;;21.46;37.15;99874.01;110258;1264;18723;-51
2022/04/02 00:19:39;;;;;;;;;8.00;8.00;;;;;21.47;37.18;99870.83;110217;1264;22081;-51
2022/04/02 00:22:07;;;;;;;;;5.33;5.00;;;;;21.49;37.31;99873.55;110304;1264;18858;-51
2022/04/02 00:24:34;;;;;;;;;7.33;6.67;;;;;21.47;37.14;99868.52;110250;1264;20146;-50
2022/04/02 00:27:01;;;;;;;;;6.00;5.00;;;;;21.47;37.26;99869.27;110193;1265;20739;-54
2022/04/02 00:29:29;;;;;;;;;6.67;6.00;;;;;21.47;37.15;99866.09;110187;1264;19739;-52
2022/04/02 00:31:56;;;;;;;;;7.00;7.00;;;;;21.48;37.13;99869.44;110259;1264;18893;-53
2022/04/02 00:34:23;;;;;;;;;5.00;5.00;;;;;21.48;36.95;99869.78;110284;1263;19612;-55
2022/04/02 00:36:51;;;;;;;;;6.00;6.00;;;;;21.50;37.06;99870.46;110274;1265;18473;-52
2022/04/02 00:39:20;;;;;;;;;5.67;5.67;;;;;21.49;37.05;99867.73;110246;1264;18837;-52
2022/04/02 00:41:47;;;;;;;;;9.00;8.00;;;;;21.49;37.04;99863.02;110262;1265;19361;-53
2022/04/02 00:44:14;;;;;;;;;5.33;5.33;;;;;21.48;36.97;99862.74;110268;1265;18455;-49
2022/04/02 00:46:42;;;;;;;;;6.00;6.00;;;;;21.47;36.99;99860.85;110274;1264;20270;-52
2022/04/02 00:49:09;;;;;;;;;7.33;6.00;;;;;21.48;36.86;99860.93;110302;1264;19618;-53
2022/04/02 00:51:41;;;;;;;;;5.00;5.00;;;;;21.46;36.91;99859.16;110264;1264;18477;-51
2022/04/02 00:54:09;;;;;;;;;6.00;6.00;;;;;21.46;36.82;99859.11;110177;1264;18818;-51
2022/04/02 00:56:36;;;;;;;;;5.33;5.00;;;;;21.46;36.96;99864.82;110215;1264;19500;-52
2022/04/02 00:59:04;;;;;;;;;6.67;6.00;;;;;21.46;36.94;99863.14;110292;1265;18613;-51
2022/04/02 01:01:32;;;;;;;;;7.00;7.00;;;;;21.46;36.73;99863.94;110326;1264;19009;-53
2022/04/02 01:03:59;;;;;;;;;5.00;5.00;;;;;21.46;36.74;99862.46;110301;1264;19598;-51
2022/04/02 01:06:26;;;;;;;;;5.00;5.00;;;;;21.46;36.76;99864.78;110278;1264;22728;-51
2022/04/02 01:08:54;;;;;;;;;5.00;5.00;;;;;21.45;36.76;99861.91;110257;1264;19479;-52
2022/04/02 01:11:21;;;;;;;;;8.00;6.00;;;;;21.46;36.78;99865.36;110279;1265;19492;-53
2022/04/02 01:13:48;;;;;;;;;5.00;5.00;;;;;21.44;36.54;99863.60;110242;1265;18721;-49
2022/04/02 01:16:16;;;;;;;;;5.00;5.00;;;;;21.44;36.62;99861.45;110286;1265;18898;-49
2022/04/02 01:18:43;;;;;;;;;7.00;5.67;;;;;21.45;36.73;99862.20;110184;1264;19819;-50
2022/04/02 01:21:10;;;;;;;;;4.67;4.67;;;;;21.45;36.38;99861.29;110232;1264;19627;-50
2022/04/02 01:23:37;;;;;;;;;7.33;7.33;;;;;21.45;36.59;99856.80;110235;1264;18858;-50
2022/04/02 01:26:05;;;;;;;;;5.00;5.00;;;;;21.44;36.66;99862.50;110243;1265;19538;-52
2022/04/02 01:28:34;;;;;;;;;5.00;5.00;;;;;21.44;36.68;99863.51;110153;1265;18429;-53
2022/04/02 01:31:02;;;;;;;;;6.00;5.00;;;;;21.45;36.45;99866.27;110154;1267;22124;-51
2022/04/02 01:33:29;;;;;;;;;4.33;4.33;;;;;21.44;36.42;99867.40;110107;1265;20234;-51
2022/04/02 01:35:57;;;;;;;;;8.00;7.33;;;;;21.45;36.29;99866.27;110088;1266;18451;-50
2022/04/02 01:38:24;;;;;;;;;9.00;5.67;;;;;21.44;36.44;99868.75;110123;1266;19129;-51
2022/04/02 01:40:51;;;;;;;;;5.33;5.00;;;;;21.43;36.59;99868.96;110153;1265;19538;-52
2022/04/02 01:43:18;;;;;;;;;5.00;5.00;;;;;21.44;36.34;99870.17;110184;1265;18586;-53
2022/04/02 01:45:45;;;;;;;;;4.00;4.00;;;;;21.44;36.50;99868.34;110147;1265;18736;-52
2022/04/02 01:48:13;;;;;;;;;6.00;5.00;;;;;21.44;36.38;99866.41;110247;1265;19586;-53
2022/04/02 01:50:40;;;;;;;;;6.67;6.67;;;;;21.44;36.49;99870.56;110248;1264;18460;-51
2022/04/02 01:53:07;;;;;;;;;4.67;4.67;;;;;21.43;36.40;99866.65;110206;1264;19040;-52
2022/04/02 01:55:34;;;;;;;;;6.00;5.00;;;;;21.43;36.46;99864.27;110269;1264;19501;-53
2022/04/02 01:58:02;;;;;;;;;6.00;6.00;;;;;21.42;36.48;99866.77;110268;1264;20029;-51
2022/04/02 02:00:29;;;;;;;;;8.00;5.33;;;;;21.42;36.34;99866.77;110261;1264;18770;-50
2022/04/02 02:02:56;;;;;;;;;5.00;5.00;;;;;21.42;36.46;99867.87;110227;1264;21699;-54
2022/04/02 02:05:23;;;;;;;;;5.00;5.00;;;;;21.42;36.13;99869.50;110274;1264;18403;-52
2022/04/02 02:07:50;;;;;;;;;8.00;6.67;;;;;21.43;36.27;99869.97;110257;1265;20285;-50
2022/04/02 02:10:18;;;;;;;;;5.00;5.00;;;;;21.44;36.29;99872.35;110258;1264;22346;-52
2022/04/02 02:12:46;;;;;;;;;5.00;5.00;;;;;21.43;36.27;99875.16;110223;1264;18483;-51
2022/04/02 02:15:16;;;;;;;;;4.67;4.67;;;;;21.43;36.21;99878.15;110231;1264;18847;-50
2022/04/02 02:17:44;;;;;;;;;6.00;5.67;;;;;21.43;36.12;99875.34;110224;1263;22223;-51
2022/04/02 02:20:11;;;;;;;;;5.67;5.33;;;;;21.43;35.98;99878.90;110268;1265;18344;-50
2022/04/02 02:22:39;;;;;;;;;5.00;5.00;;;;;21.43;36.16;99876.52;110268;1264;18701;-53
2022/04/02 02:25:06;;;;;;;;;5.00;5.00;;;;;21.42;36.21;99877.52;110176;1264;22227;-50
2022/04/02 02:27:34;;;;;;;;;5.33;5.00;;;;;21.42;36.26;99879.15;110218;1264;18613;-50
2022/04/02 02:30:01;;;;;;;;;5.00;5.00;;;;;21.42;36.06;99880.40;110252;1264;19016;-50
2022/04/02 02:32:31;;;;;;;;;7.00;5.50;;;;;21.42;36.18;99876.50;110249;1264;20068;-50
2022/04/02 02:37:43;;;;;;;;;4.00;4.00;;;;;21.41;35.91;99881.08;110274;1265;19768;-49
2022/04/02 02:40:12;;;;;;;;;5.50;5.00;;;;;21.41;36.00;99883.46;110270;1264;22803;-49
2022/04/02 02:42:39;;;;;;;;;6.33;5.00;;;;;21.40;36.11;99879.25;110154;1264;18430;-53
2022/04/02 02:45:07;;;;;;;;;5.33;5.00;;;;;21.40;35.97;99880.23;110152;1264;18880;-57
2022/04/02 02:47:34;;;;;;;;;5.00;5.00;;;;;21.40;36.04;99878.30;110213;1264;19790;-55
2022/04/02 02:50:01;;;;;;;;;8.00;5.67;;;;;21.40;35.92;99879.94;110205;1264;22730;-50
2022/04/02 02:52:28;;;;;;;;;5.33;5.00;;;;;21.40;35.88;99882.02;110276;1264;20021;-49
2022/04/02 02:54:56;;;;;;;;;5.00;5.00;;;;;21.40;35.96;99881.43;110206;1265;23511;-50
2022/04/02 02:57:23;;;;;;;;;8.00;6.00;;;;;21.40;36.12;99881.73;110234;1264;18475;-51
2022/04/02 02:59:51;;;;;;;;;6.00;5.67;;;;;21.40;35.83;99883.08;110206;1263;20128;-50
2022/04/02 03:02:18;;;;;;;;;4.00;4.00;;;;;21.41;35.75;99883.12;110221;1264;19562;-50
2022/04/02 03:04:45;;;;;;;;;5.00;5.00;;;;;21.40;35.94;99883.25;110221;1264;19260;-51
2022/04/02 03:07:13;;;;;;;;;5.00;5.00;;;;;21.40;35.86;99881.57;110283;1265;18705;-51
2022/04/02 03:09:40;;;;;;;;;4.00;4.00;;;;;21.41;35.70;99882.55;110219;1265;19689;-51
2022/04/02 03:12:07;;;;;;;;;5.00;5.00;;;;;21.41;35.78;99884.26;110232;1264;18453;-50
2022/04/02 03:14:36;;;;;;;;;5.00;5.00;;;;;21.40;35.66;99878.58;110233;1265;22383;-50
2022/04/02 03:17:03;;;;;;;;;5.00;4.67;;;;;21.39;35.74;99876.27;110239;1264;20535;-49
2022/04/02 03:19:31;;;;;;;;;6.00;5.00;;;;;21.40;35.78;99875.74;110261;1264;18565;-50
2022/04/02 03:21:58;;;;;;;;;4.33;4.33;;;;;21.40;35.75;99878.92;110233;1264;19395;-56
2022/04/02 03:24:25;;;;;;;;;4.00;4.00;;;;;21.40;35.73;99880.73;110240;1264;20065;-50
2022/04/02 03:26:52;;;;;;;;;6.00;5.00;;;;;21.39;35.65;99881.81;110204;1264;18452;-50
2022/04/02 03:29:20;;;;;;;;;5.00;5.00;;;;;21.39;35.62;99877.48;110191;1264;18764;-50
2022/04/02 03:31:47;;;;;;;;;4.00;4.00;;;;;21.39;35.67;99877.41;110224;1264;20160;-50
2022/04/02 03:34:15;;;;;;;;;5.00;5.00;;;;;21.41;35.87;99880.10;110203;1264;18427;-50
2022/04/02 03:36:42;;;;;;;;;4.00;4.00;;;;;21.40;35.63;99882.77;110202;1264;18684;-52
2022/04/02 03:39:10;;;;;;;;;5.67;5.67;;;;;21.40;35.63;99881.60;110245;1264;19609;-54
2022/04/02 03:41:37;;;;;;;;;5.00;5.00;;;;;21.41;35.47;99886.95;110216;1264;18619;-52
2022/04/02 03:44:04;;;;;;;;;4.00;4.00;;;;;21.41;35.60;99888.41;110233;1264;22265;-50
2022/04/02 03:49:26;;;;;;;;;5.00;5.00;;;;;21.38;35.71;99893.51;109604;1270;21729;-52
2022/04/02 03:51:53;;;;;;;;;5.00;5.00;;;;;21.39;35.54;99888.68;109453;1270;18885;-52
2022/04/02 03:54:20;;;;;;;;;4.00;4.00;;;;;21.39;35.49;99889.31;109497;1270;19561;-50
2022/04/02 03:56:47;;;;;;;;;4.33;4.33;;;;;21.39;35.36;99894.65;109499;1270;18514;-51
2022/04/02 03:59:15;;;;;;;;;8.00;5.00;;;;;21.39;35.61;99893.67;109514;1270;18987;-49
2022/04/02 04:01:42;;;;;;;;;4.67;4.00;;;;;21.41;35.61;99900.45;109500;1270;19783;-51
2022/04/02 04:04:09;;;;;;;;;5.00;4.00;;;;;21.40;35.60;99897.20;109504;1270;19763;-51
2022/04/02 04:06:37;;;;;;;;;4.00;4.00;;;;;21.40;35.51;99896.53;109531;1270;18893;-49
2022/04/02 04:09:05;;;;;;;;;5.00;4.00;;;;;21.39;35.60;99904.63;109530;1270;19789;-49
2022/04/02 04:11:32;;;;;;;;;4.00;4.00;;;;;21.39;35.40;99903.87;109492;1270;19795;-51
2022/04/02 04:13:59;;;;;;;;;5.00;4.00;;;;;21.37;35.64;99903.77;109505;1270;19031;-53
2022/04/02 04:16:26;;;;;;;;;3.33;3.33;;;;;21.37;35.46;99903.98;109622;1270;19903;-52
2022/04/02 04:18:54;;;;;;;;;4.00;4.00;;;;;21.37;35.72;99902.52;109495;1270;22845;-54
2022/04/02 04:21:21;;;;;;;;;5.00;5.00;;;;;21.37;35.48;99904.54;109510;1270;19186;-56
2022/04/02 04:23:48;;;;;;;;;5.00;4.67;;;;;21.37;35.31;99911.16;109526;1270;21616;-50
2022/04/02 04:26:16;;;;;;;;;3.00;3.00;;;;;21.35;35.65;99912.06;109946;1264;22804;-50
2022/04/02 04:28:43;;;;;;;;;4.33;4.33;;;;;21.35;35.40;99914.20;110270;1264;18905;-55
2022/04/02 04:31:10;;;;;;;;;4.00;4.00;;;;;21.35;35.62;99922.60;110312;1264;19616;-50
2022/04/02 04:33:38;;;;;;;;;4.00;4.00;;;;;21.34;35.53;99919.60;110257;1265;19907;-53
2022/04/02 04:36:05;;;;;;;;;4.67;4.67;;;;;21.35;35.49;99920.57;110259;1264;19039;-53
2022/04/02 04:38:32;;;;;;;;;4.00;4.00;;;;;21.35;35.47;99921.08;110279;1264;19505;-51
2022/04/02 04:41:02;;;;;;;;;4.00;4.00;;;;;21.34;35.67;99920.77;110230;1264;18569;-49
2022/04/02 04:43:29;;;;;;;;;5.00;5.00;;;;;21.33;35.46;99922.83;110207;1264;18748;-50
2022/04/02 04:45:56;;;;;;;;;5.00;4.00;;;;;21.35;35.33;99930.02;110233;1264;19893;-49
2022/04/02 04:48:23;;;;;;;;;5.00;4.33;;;;;21.32;35.42;99927.64;110229;1265;22126;-53
2022/04/02 04:50:50;;;;;;;;;4.00;4.00;;;;;21.33;35.54;99928.45;110235;1264;22575;-51
2022/04/02 04:53:18;;;;;;;;;5.00;4.00;;;;;21.33;35.48;99928.66;110252;1264;19448;-52
2022/04/02 04:55:45;;;;;;;;;5.00;4.00;;;;;21.33;35.31;99933.69;110273;1264;18611;-55
2022/04/02 04:58:12;;;;;;;;;4.00;4.00;;;;;21.33;35.53;99933.60;110262;1264;19516;-54
2022/04/02 05:00:39;;;;;;;;;4.33;4.33;;;;;21.33;35.45;99930.59;110258;1264;19593;-54
2022/04/02 05:03:08;;;;;;;;;5.00;5.00;;;;;21.34;35.34;99936.84;110261;1264;21913;-52
2022/04/02 05:05:35;;;;;;;;;2.00;2.00;;;;;21.34;35.49;99939.02;110257;1264;18771;-52
2022/04/02 05:08:03;;;;;;;;;4.00;4.00;;;;;21.35;35.43;99933.37;110235;1264;19631;-50
2022/04/02 05:10:36;;;;;;;;;4.00;4.00;;;;;21.34;35.32;99936.25;110292;1264;18555;-51
2022/04/02 05:13:04;;;;;;;;;4.00;4.00;;;;;21.34;35.30;99939.81;110256;1265;18689;-53
2022/04/02 05:15:31;;;;;;;;;4.33;4.00;;;;;21.34;35.40;99940.35;110180;1265;19594;-53
2022/04/02 05:17:59;;;;;;;;;4.00;4.00;;;;;21.33;35.51;99940.11;110150;1264;18456;-55
2022/04/02 05:20:26;;;;;;;;;2.00;2.00;;;;;21.32;35.46;99940.94;110286;1264;18912;-48
2022/04/02 05:22:54;;;;;;;;;5.00;4.00;;;;;21.32;35.23;99937.29;110215;1265;19848;-51
2022/04/02 05:25:21;;;;;;;;;4.00;4.00;;;;;21.35;35.22;99940.46;110322;1264;18539;-52
2022/04/02 05:27:49;;;;;;;;;5.00;5.00;;;;;21.35;35.34;99949.65;110227;1264;18961;-52
2022/04/02 05:30:17;;;;;;;;;5.00;5.00;;;;;21.35;35.30;99948.72;110196;1264;19654;-51
2022/04/02 05:32:44;;;;;;;;;4.00;4.00;;;;;21.36;35.47;99950.29;110202;1265;18732;-47
2022/04/02 05:35:12;;;;;;;;;4.00;4.00;;;;;21.36;35.18;99955.77;110241;1264;18728;-53
2022/04/02 05:37:39;;;;;;;;;4.50;4.50;;;;;21.37;35.28;99952.68;110285;1265;19391;-50
2022/04/02 05:40:07;;;;;;;;;4.00;4.00;;;;;21.39;35.29;99956.50;110261;1264;18621;-50
2022/04/02 05:42:34;;;;;;;;;4.00;4.00;;;;;21.38;35.13;99956.16;110209;1264;18680;-50
2022/04/02 05:45:02;;;;;;;;;4.00;4.00;;;;;21.39;35.30;99956.99;110088;1264;19640;-50
2022/04/02 05:47:29;;;;;;;;;5.00;4.00;;;;;21.39;35.15;99959.14;109991;1265;18516;-51
2022/04/02 05:49:57;;;;;;;;;5.00;4.00;;;;;21.40;35.16;99963.36;110198;1267;18754;-54
2022/04/02 05:52:25;;;;;;;;;3.33;3.33;;;;;21.40;35.19;99964.27;110257;1264;22826;-54
2022/04/02 05:54:53;;;;;;;;;3.33;3.33;;;;;21.41;35.41;99963.85;110256;1265;20867;-53
2022/04/02 05:57:20;;;;;;;;;4.33;4.00;;;;;21.41;35.26;99960.74;110205;1264;18760;-53
2022/04/02 05:59:48;;;;;;;;;2.67;2.67;;;;;21.41;35.32;99963.10;110225;1264;19499;-54
2022/04/02 06:02:15;;;;;;;;;2.00;2.00;;;;;21.43;35.09;99964.89;110280;1264;18393;-53
2022/04/02 06:04:43;;;;;;;;;3.33;3.33;;;;;21.45;35.47;99968.52;110281;1264;18693;-57
2022/04/02 06:07:11;;;;;;;;;5.00;5.00;;;;;21.48;35.64;99969.91;110283;1265;19559;-54
2022/04/02 06:09:38;;;;;;;;;4.33;4.00;;;;;21.55;35.82;99972.80;110131;1264;22139;-57
2022/04/02 06:12:06;;;;;;;;;5.00;4.00;;;;;21.63;35.96;99972.38;110230;1265;18985;-55
2022/04/02 06:14:34;;;;;;;;;4.50;4.50;;;;;21.70;36.06;99971.70;110190;1264;19530;-54
2022/04/02 06:17:01;;;;;;;;;4.00;4.00;;;;;21.78;36.66;99978.26;109866;1264;259835;-54
2022/04/02 06:19:29;;;;;;;;;6.00;4.00;;;;;21.88;36.99;99969.65;110265;1264;18735;-56
2022/04/02 06:21:56;;;;;;;;;5.00;4.00;;;;;21.89;37.05;99971.14;110214;1264;19679;-53
2022/04/02 06:24:24;;;;;;;;;5.00;4.00;;;;;21.90;36.96;99973.08;110157;1265;18612;-52
2022/04/02 06:26:51;;;;;;;;;8.00;5.00;;;;;21.93;37.11;99977.45;110219;1264;18750;-57
2022/04/02 06:29:20;;;;;;;;;6.00;5.00;;;;;21.97;37.45;99977.00;110302;1264;19470;-54
2022/04/02 06:31:47;;;;;;;;;5.00;5.00;;;;;22.00;37.71;99977.34;110357;1264;22271;-56
2022/04/02 06:34:15;;;;;;;;;5.33;5.00;;;;;22.01;37.56;99978.91;110212;1264;18756;-56
2022/04/02 06:36:42;;;;;;;;;5.67;5.00;;;;;22.01;37.72;99979.76;110221;1265;20187;-55
2022/04/02 06:39:12;;;;;;;;;4.00;4.00;;;;;21.99;37.62;99988.92;110073;1265;23000;-54
2022/04/02 06:41:39;;;;;;;;;4.67;4.00;;;;;21.96;38.37;99987.11;110287;1264;21311;-56
2022/04/02 06:44:08;;;;;;;;;5.00;5.00;;;;;21.98;38.54;99989.42;110226;1265;19987;-52
2022/04/02 06:46:37;;;;;;;;;4.00;4.00;;;;;22.02;39.38;100001.16;110287;1265;18456;-53
2022/04/02 06:49:04;;;;;;;;;8.50;6.00;;;;;22.03;39.70;100003.59;110209;1265;22725;-57
2022/04/02 06:51:32;;;;;;;;;6.00;6.00;;;;;21.96;39.82;100000.00;110233;1264;19393;-53
2022/04/02 06:54:00;;;;;;;;;6.67;6.67;;;;;21.90;39.88;99996.05;110276;1264;18588;-52
2022/04/02 06:56:27;;;;;;;;;6.00;5.67;;;;;21.87;40.22;99999.06;110238;1264;19073;-55
2022/04/02 06:58:55;;;;;;;;;8.33;6.00;;;;;21.85;40.09;100004.69;110277;1264;19613;-53
2022/04/02 07:01:22;;;;;;;;;8.00;8.00;;;;;21.85;39.83;100002.70;110307;1264;18882;-53
2022/04/02 07:03:50;;;;;;;;;7.33;7.33;;;;;21.83;39.63;100006.60;110114;1265;18743;-57
2022/04/02 07:06:17;;;;;;;;;7.67;7.67;;;;;21.85;39.41;100006.54;110209;1264;19621;-57
2022/04/02 07:08:45;;;;;;;;;6.00;6.00;;;;;21.85;39.36;100013.84;110258;1264;18587;-51
2022/04/02 07:11:12;;;;;;;;;6.00;6.00;;;;;21.85;39.54;100010.02;110176;1264;19348;-57
2022/04/02 07:13:40;;;;;;;;;6.67;6.00;;;;;21.88;39.60;100015.83;110266;1264;19477;-57
2022/04/02 07:16:08;;;;;;;;;6.67;6.67;;;;;21.88;39.18;100011.20;110003;1265;18408;-55
2022/04/02 07:18:36;;;;;;;;;9.67;8.33;;;;;21.84;38.81;100010.64;110078;1267;18608;-53
2022/04/02 07:21:03;;;;;;;;;8.00;8.00;;;;;21.88;38.54;100011.30;110185;1264;22241;-57
2022/04/02 07:23:31;;;;;;;;;9.00;9.00;;;;;21.91;38.27;100009.38;110203;1264;18777;-54
2022/04/02 07:25:58;;;;;;;;;8.50;8.00;;;;;21.88;37.86;100008.90;110225;1264;18844;-56
2022/04/02 07:28:27;;;;;;;;;9.00;9.00;;;;;21.91;37.65;100012.36;110263;1264;19552;-53
2022/04/02 07:30:55;;;;;;;;;8.00;8.00;;;;;21.87;37.25;100011.20;110232;1264;18953;-56
2022/04/02 07:33:23;;;;;;;;;8.00;8.00;;;;;21.86;37.11;100013.33;110237;1264;19678;-53
2022/04/02 07:35:50;;;;;;;;;8.00;6.00;;;;;21.90;36.62;100013.70;110204;1264;19714;-55
2022/04/02 07:38:18;;;;;;;;;8.00;6.00;;;;;21.90;36.49;100013.98;110215;1264;18582;-59
2022/04/02 07:40:46;;;;;;;;;6.00;6.00;;;;;21.90;35.80;100016.05;110296;1264;18775;-60
2022/04/02 07:43:13;;;;;;;;;9.00;9.00;;;;;21.90;35.64;100015.04;110293;1264;19627;-61
2022/04/02 07:45:41;;;;;;;;;8.67;8.33;;;;;21.89;35.46;100020.36;110216;1264;20013;-57
2022/04/02 07:48:09;;;;;;;;;7.00;6.00;;;;;21.96;35.34;100021.73;110127;1264;18754;-54
2022/04/02 07:50:36;;;;;;;;;9.00;9.00;;;;;22.00;35.30;100020.88;110105;1264;19560;-56
2022/04/02 07:53:04;;;;;;;;;9.00;7.00;;;;;21.99;34.73;100017.80;110175;1264;18480;-54
2022/04/02 07:55:32;;;;;;;;;9.00;8.00;;;;;22.01;35.11;100020.20;110299;1265;18754;-59
2022/04/02 07:57:59;;;;;;;;;448.00;447.33;;;;;22.12;34.77;100015.45;110263;1264;19540;-56
2022/04/02 08:00:27;;;;;;;;;6.67;6.00;;;;;22.22;34.95;100014.80;110245;1265;18454;-54
2022/04/02 08:02:54;;;;;;;;;8.50;7.00;;;;;22.30;35.13;100015.58;110243;1265;21784;-54
2022/04/02 08:05:22;;;;;;;;;6.33;6.00;;;;;22.32;35.31;100017.45;110255;1264;19438;-55
2022/04/02 08:07:52;;;;;;;;;6.00;6.00;;;;;22.35;35.35;100021.83;110146;1264;23181;-59
2022/04/02 08:10:19;;;;;;;;;7.00;7.00;;;;;22.37;35.54;100021.54;110233;1263;18805;-58
2022/04/02 08:12:47;;;;;;;;;6.00;6.00;;;;;22.42;35.83;100021.93;110214;1264;19626;-55
2022/04/02 08:15:16;;;;;;;;;9.33;7.00;;;;;22.49;35.95;100023.04;110038;1265;18882;-56
2022/04/02 08:17:43;;;;;;;;;6.67;5.33;;;;;22.50;35.91;100015.40;110141;1265;22982;-54
2022/04/02 08:20:10;;;;;;;;;6.50;6.50;;;;;22.52;35.90;100020.77;110218;1264;19584;-56
2022/04/02 08:22:38;;;;;;;;;6.33;5.67;;;;;22.56;36.15;100030.83;110285;1264;18632;-54
2022/04/02 08:25:05;;;;;;;;;5.00;5.00;;;;;22.56;36.04;100030.66;110210;1263;19328;-55
2022/04/02 08:27:33;;;;;;;;;6.00;5.67;;;;;22.56;36.19;100029.11;110163;1265;19465;-60
2022/04/02 08:33:00;;;;;;;;;7.00;6.67;;;;;22.63;36.09;100034.55;110017;1264;18797;-55
2022/04/02 08:35:27;;;;;;;;;5.67;5.33;;;;;22.63;36.07;100043.62;110046;1264;19501;-56
2022/04/02 08:37:55;;;;;;;;;6.00;5.00;;;;;22.61;35.98;100033.95;110159;1264;18643;-54
2022/04/02 08:40:22;;;;;;;;;5.00;5.00;;;;;22.51;36.05;100038.89;110213;1265;19030;-55
2022/04/02 08:42:49;;;;;;;;;5.00;5.00;;;;;22.44;35.82;100037.17;110215;1264;19618;-55
2022/04/02 08:45:16;;;;;;;;;11.00;6.00;;;;;22.38;35.78;100040.09;110180;1264;18523;-59
2022/04/02 08:47:43;;;;;;;;;7.00;6.00;;;;;22.36;35.54;100046.80;110153;1264;19518;-54
2022/04/02 08:50:11;;;;;;;;;6.00;6.00;;;;;21.95;33.10;100053.27;110200;1264;20194;-55
2022/04/02 08:52:38;;;;;;;;;6.67;5.67;;;;;21.40;31.96;100051.58;110054;1264;18612;-53
2022/04/02 08:55:05;;;;;;;;;5.67;5.67;;;;;21.18;31.12;100054.34;110163;1264;18939;-57
2022/04/02 08:57:32;;;;;;;;;5.00;5.00;;;;;21.42;31.46;100055.55;110211;1264;19652;-55
2022/04/02 09:00:00;;;;;;;;;9.00;6.00;;;;;21.70;31.47;100058.55;110190;1264;18576;-55
2022/04/02 09:02:27;;;;;;;;;5.67;4.67;;;;;21.90;31.43;100055.75;110199;1264;22795;-55
2022/04/02 09:04:54;;;;;;;;;6.00;6.00;;;;;22.06;31.83;100061.60;110136;1265;19478;-54
2022/04/02 09:07:21;;;;;;;;;8.50;8.00;;;;;22.18;31.74;100059.54;110084;1264;18588;-54
2022/04/02 09:09:49;;;;;;;;;7.00;5.00;;;;;22.26;32.28;100066.52;110118;1264;20210;-55
2022/04/02 09:12:16;;;;;;;;;4.00;4.00;;;;;22.30;32.42;100069.38;110119;1264;22913;-53
2022/04/02 09:14:43;;;;;;;;;5.00;5.00;;;;;22.33;32.49;100067.00;110172;1264;19703;-55
2022/04/02 09:17:10;;;;;;;;;8.00;5.33;;;;;22.30;32.66;100068.80;110132;1264;22316;-55
2022/04/02 09:19:37;;;;;;;;;6.00;6.00;;;;;22.32;33.15;100064.35;110086;1265;19708;-54
2022/04/02 09:22:05;;;;;;;;;7.00;6.00;;;;;22.35;33.44;100063.40;109981;1265;18945;-55
2022/04/02 09:24:32;;;;;;;;;6.67;6.00;;;;;22.37;33.52;100072.52;110194;1264;19463;-56
2022/04/02 09:27:00;;;;;;;;;7.67;6.33;;;;;22.37;33.65;100060.89;110231;1264;19713;-54
2022/04/02 09:29:27;;;;;;;;;6.00;6.00;;;;;22.38;33.37;100062.36;110268;1264;18536;-56
2022/04/02 09:31:54;;;;;;;;;8.50;6.00;;;;;22.39;33.30;100058.04;110310;1264;18823;-55
2022/04/02 09:34:22;;;;;;;;;5.00;3.67;;;;;22.39;33.19;100057.82;110251;1264;21127;-55
2022/04/02 09:36:49;;;;;;;;;5.50;5.50;;;;;22.36;33.37;100057.18;110226;1264;18730;-54
2022/04/02 09:39:16;;;;;;;;;3.50;3.50;;;;;22.37;33.44;100057.20;110202;1265;20470;-53
2022/04/02 09:41:43;;;;;;;;;5.33;5.00;;;;;22.36;33.67;100059.16;110240;1264;19651;-53
2022/04/02 09:44:10;;;;;;;;;3.33;3.33;;;;;22.34;33.74;100060.02;110215;1265;18571;-55
2022/04/02 09:46:38;;;;;;;;;5.00;5.00;;;;;22.33;33.80;100055.40;110267;1264;18920;-53
2022/04/02 09:49:05;;;;;;;;;6.33;5.00;;;;;22.34;33.76;100060.53;110268;1265;22845;-53
2022/04/02 09:51:32;;;;;;;;;5.00;5.00;;;;;22.37;33.79;100060.17;110215;1265;18620;-53
2022/04/02 09:53:59;;;;;;;;;6.00;5.00;;;;;22.41;34.05;100059.97;110237;1265;18826;-54
2022/04/02 09:56:26;;;;;;;;;5.00;5.00;;;;;22.41;34.18;100063.09;110158;1265;22297;-57
2022/04/02 09:58:54;;;;;;;;;5.67;5.67;;;;;22.39;34.19;100059.97;110229;1264;18422;-57
2022/04/02 10:01:21;;;;;;;;;3.00;3.00;;;;;22.37;34.22;100060.68;110301;1264;22997;-55
2022/04/02 10:03:48;;;;;;;;;5.00;5.00;;;;;22.33;33.99;100062.63;110284;1265;19685;-53
2022/04/02 10:06:15;;;;;;;;;5.00;5.00;;;;;22.29;33.99;100062.98;110226;1265;18646;-53
2022/04/02 10:08:43;;;;;;;;;5.00;5.00;;;;;22.26;34.00;100056.60;110211;1264;18861;-54
2022/04/02 10:11:11;;;;;;;;;5.00;5.00;;;;;22.27;33.84;100056.94;110278;1264;20916;-55
2022/04/02 10:13:38;;;;;;;;;4.50;4.50;;;;;22.24;33.80;100054.38;110305;1264;18862;-56
2022/04/02 10:16:06;;;;;;;;;3.00;3.00;;;;;22.23;33.84;100057.80;110193;1264;18899;-53
2022/04/02 10:18:33;;;;;;;;;4.67;4.67;;;;;22.23;33.79;100051.80;110191;1265;19584;-56
2022/04/02 10:21:00;;;;;;;;;4.00;3.33;;;;;22.23;33.77;100051.33;110248;1264;18609;-50
2022/04/02 10:23:28;;;;;;;;;6.00;5.00;;;;;22.23;33.70;100044.87;110223;1265;20616;-54
2022/04/02 10:25:55;;;;;;;;;6.00;5.00;;;;;22.23;33.62;100050.58;110266;1265;19591;-57
2022/04/02 10:28:22;;;;;;;;;4.50;4.50;;;;;22.21;33.73;100053.34;110263;1264;18488;-58
2022/04/02 10:30:49;;;;;;;;;4.00;3.50;;;;;22.21;33.69;100049.52;110210;1265;19139;-53
2022/04/02 10:33:29;;;;;;;;;3.00;3.00;;;;;22.21;33.65;100048.97;110251;1264;22024;-54
2022/04/02 10:35:56;;;;;;;;;6.00;5.67;;;;;22.21;33.73;100050.15;110238;1264;18399;-56
2022/04/02 10:38:23;;;;;;;;;5.00;3.00;;;;;22.19;33.59;100055.48;110260;1264;20339;-55
2022/04/02 10:40:50;;;;;;;;;2.67;2.33;;;;;22.17;33.61;100051.14;110289;1264;19625;-54
2022/04/02 10:43:17;;;;;;;;;4.00;4.00;;;;;22.17;33.39;100054.28;110277;1264;18455;-54
2022/04/02 10:45:45;;;;;;;;;6.00;5.00;;;;;22.14;33.49;100053.15;110285;1264;18856;-52
2022/04/02 10:48:12;;;;;;;;;5.33;5.00;;;;;22.15;33.51;100053.61;110284;1264;19545;-53
2022/04/02 10:50:39;;;;;;;;;4.00;4.00;;;;;22.13;33.31;100050.20;110244;1264;18463;-57
2022/04/02 10:53:06;;;;;;;;;5.00;3.00;;;;;22.12;33.43;100051.97;110244;1264;18723;-55
2022/04/02 10:55:34;;;;;;;;;3.00;3.00;;;;;22.10;33.42;100053.03;110199;1264;19551;-53
2022/04/02 10:58:02;;;;;;;;;6.33;4.67;;;;;22.10;33.45;100054.30;110278;1265;18348;-55
2022/04/02 11:00:30;;;;;;;;;3.67;3.00;;;;;22.08;33.46;100060.27;110272;1265;22922;-57
2022/04/02 11:02:57;;;;;;;;;5.00;5.00;;;;;22.08;33.49;100056.61;110248;1264;19547;-56
2022/04/02 11:05:24;;;;;;;;;3.00;3.00;;;;;22.06;33.46;100052.52;110257;1264;22817;-53
2022/04/02 11:07:52;;;;;;;;;5.00;5.00;;;;;22.03;33.45;100047.64;110296;1264;18904;-53
2022/04/02 11:10:19;;;;;;;;;3.00;3.00;;;;;22.04;33.48;100052.64;110263;1265;19596;-56
2022/04/02 11:12:48;;;;;;;;;4.67;4.67;;;;;22.04;33.46;100048.40;110240;1264;18721;-53
2022/04/02 11:15:15;;;;;;;;;2.00;2.00;;;;;22.04;33.30;100051.84;110236;1264;19604;-54
2022/04/02 11:17:43;;;;;;;;;3.00;3.00;;;;;22.02;33.30;100047.46;110268;1265;19529;-56
2022/04/02 11:20:10;;;;;;;;;5.00;5.00;;;;;22.01;33.32;100057.71;110252;1264;18495;-54
2022/04/02 11:22:37;;;;;;;;;3.33;3.00;;;;;22.01;33.34;100056.66;110315;1265;18814;-52
2022/04/02 11:25:05;;;;;;;;;5.00;3.00;;;;;22.00;33.28;100055.39;110271;1264;19535;-53
2022/04/02 11:27:33;;;;;;;;;4.33;3.67;;;;;21.97;33.22;100042.48;110239;1264;18777;-53
2022/04/02 11:30:00;;;;;;;;;6.00;6.00;;;;;21.97;33.27;100036.98;110188;1264;19017;-55